createdAt,value
2022-08-17T00:00:43.569Z,25.60
2022-08-17T00:03:13.584Z,23.50
2022-08-17T00:05:45.312Z,28.80
2022-08-17T00:08:16.300Z,23.10
2022-08-17T00:10:46.839Z,22.60
2022-08-17T00:13:18.515Z,32.50
2022-08-17T00:15:47.558Z,25.20
2022-08-17T00:19:00.987Z,21.00
2022-08-17T00:21:10.573Z,25.30
2022-08-17T00:23:49.108Z,30.40
2022-08-17T00:26:34.540Z,22.40
2022-08-17T00:29:07.881Z,21.00
2022-08-17T00:31:36.935Z,22.60
2022-08-17T00:34:08.655Z,19.90
2022-08-17T00:36:37.203Z,26.90
2022-08-17T00:39:06.814Z,19.50
2022-08-17T00:41:35.434Z,23.50
2022-08-17T00:44:05.677Z,28.90
2022-08-17T00:46:37.620Z,23.30
2022-08-17T00:49:07.571Z,23.50
2022-08-17T00:51:42.580Z,31.60
2022-08-17T00:54:14.343Z,23.00
2022-08-17T00:56:47.511Z,26.70
2022-08-17T00:59:21.003Z,26.60
2022-08-17T01:01:51.950Z,22.30
2022-08-17T01:04:22.301Z,24.20
2022-08-17T01:06:52.520Z,23.30
2022-08-17T01:09:21.495Z,23.00
2022-08-17T01:11:51.645Z,22.10
2022-08-17T01:14:21.070Z,24.30
2022-08-17T01:16:53.415Z,27.70
2022-08-17T01:19:25.091Z,22.40
2022-08-17T01:22:00.641Z,21.30
2022-08-17T01:24:29.133Z,29.70
2022-08-17T01:26:57.790Z,22.40
2022-08-17T01:29:30.288Z,24.00
2022-08-17T01:32:03.560Z,23.30
2022-08-17T01:34:42.892Z,27.60
2022-08-17T01:37:15.025Z,25.20
2022-08-17T01:39:47.723Z,22.50
2022-08-17T01:42:23.631Z,25.00
2022-08-17T01:44:56.380Z,22.90
2022-08-17T01:47:24.985Z,28.00
2022-08-17T01:49:53.932Z,24.60
2022-08-17T01:52:23.287Z,24.90
2022-08-17T01:54:52.792Z,29.40
2022-08-17T01:57:21.192Z,26.90
2022-08-17T01:59:49.697Z,34.70
2022-08-17T02:02:30.631Z,27.70
2022-08-17T02:05:00.865Z,30.00
2022-08-17T02:07:29.403Z,36.40
2022-08-17T02:09:58.072Z,30.10
2022-08-17T02:12:38.557Z,34.60
2022-08-17T02:15:11.823Z,24.60
2022-08-17T02:17:40.490Z,29.10
2022-08-17T02:20:11.024Z,28.90
2022-08-17T02:22:42.793Z,24.90
2022-08-17T02:25:15.643Z,23.10
2022-08-17T02:27:44.118Z,31.20
2022-08-17T02:31:00.626Z,21.60
2022-08-17T02:33:06.380Z,25.00
2022-08-17T02:35:38.584Z,22.10
2022-08-17T02:38:08.163Z,27.40
2022-08-17T02:40:39.970Z,30.30
2022-08-17T02:43:09.124Z,25.60
2022-08-17T02:45:37.616Z,37.70
2022-08-17T02:48:06.319Z,29.90
2022-08-17T02:50:34.768Z,26.60
2022-08-17T02:53:04.761Z,25.50
2022-08-17T02:55:36.402Z,25.60
2022-08-17T02:58:05.834Z,27.20
2022-08-17T03:00:37.430Z,24.30
2022-08-17T03:03:07.213Z,21.00
2022-08-17T03:05:38.108Z,24.00
2022-08-17T03:08:07.862Z,26.40
2022-08-17T03:10:41.756Z,31.10
2022-08-17T03:13:10.186Z,30.70
2022-08-17T03:15:40.676Z,23.70
2022-08-17T03:18:19.123Z,24.90
2022-08-17T03:20:54.464Z,30.10
2022-08-17T03:23:24.210Z,20.70
2022-08-17T03:25:54.559Z,22.00
2022-08-17T03:28:24.117Z,25.00
2022-08-17T03:30:52.734Z,39.00
2022-08-17T03:33:21.678Z,20.10
2022-08-17T03:35:50.439Z,20.40
2022-08-17T03:38:19.391Z,26.50
2022-08-17T03:40:58.156Z,26.90
2022-08-17T03:43:30.317Z,26.30
2022-08-17T03:46:28.636Z,29.70
2022-08-17T03:49:22.958Z,31.40
2022-08-17T03:52:10.199Z,30.30
2022-08-17T03:54:57.391Z,27.70
2022-08-17T03:57:26.752Z,22.90
2022-08-17T03:59:55.966Z,26.60
2022-08-17T04:02:28.467Z,20.70
2022-08-17T04:04:57.594Z,22.60
2022-08-17T04:07:29.069Z,19.20
2022-08-17T04:09:58.806Z,23.60
2022-08-17T04:12:30.019Z,17.80
2022-08-17T04:14:58.774Z,21.50
2022-08-17T04:17:29.127Z,23.80
2022-08-17T04:19:58.023Z,23.40
2022-08-17T04:22:33.409Z,22.40
2022-08-17T04:25:06.849Z,16.30
2022-08-17T04:27:35.262Z,18.20
2022-08-17T04:30:06.340Z,20.70
2022-08-17T04:33:04.057Z,22.60
2022-08-17T04:35:38.373Z,18.50
2022-08-17T04:38:08.142Z,24.70
2022-08-17T04:40:54.991Z,26.60
2022-08-17T04:43:26.044Z,26.40
2022-08-17T04:45:57.228Z,18.60
2022-08-17T04:48:36.522Z,21.50
2022-08-17T04:51:10.530Z,21.10
2022-08-17T04:53:40.773Z,22.20
2022-08-17T04:56:16.240Z,19.30
2022-08-17T04:58:47.504Z,14.20
2022-08-17T05:01:16.685Z,13.50
2022-08-17T05:03:53.819Z,17.50
2022-08-17T05:06:23.532Z,19.70
2022-08-17T05:08:53.035Z,16.10
2022-08-17T05:11:25.465Z,16.90
2022-08-17T05:13:55.060Z,21.70
2022-08-17T05:16:25.186Z,17.90
2022-08-17T05:18:58.684Z,19.70
2022-08-17T05:21:28.303Z,15.20
2022-08-17T05:23:58.266Z,12.30
2022-08-17T05:26:28.812Z,13.20
2022-08-17T05:29:02.450Z,16.10
2022-08-17T05:31:32.796Z,19.40
2022-08-17T05:34:01.607Z,20.10
2022-08-17T05:36:37.844Z,11.70
2022-08-17T05:39:17.117Z,17.50
2022-08-17T05:41:49.306Z,19.40
2022-08-17T05:44:20.898Z,13.80
2022-08-17T05:46:53.839Z,14.10
2022-08-17T05:49:29.388Z,14.00
2022-08-17T05:52:23.913Z,19.90
2022-08-17T05:55:05.009Z,16.30
2022-08-17T05:57:53.367Z,15.60
2022-08-17T06:00:30.763Z,14.40
2022-08-17T06:03:16.384Z,22.10
2022-08-17T06:05:58.900Z,13.70
2022-08-17T06:08:41.958Z,14.30
2022-08-17T06:11:37.330Z,11.30
2022-08-17T06:14:17.890Z,13.10
2022-08-17T06:16:53.815Z,17.00
2022-08-17T06:19:29.942Z,15.40
2022-08-17T06:22:02.995Z,17.70
2022-08-17T06:24:56.458Z,17.60
2022-08-17T06:27:35.844Z,12.60
2022-08-17T06:30:13.080Z,13.40
2022-08-17T06:32:44.659Z,11.20
2022-08-17T06:35:21.571Z,11.20
2022-08-17T06:40:54.834Z,12.30
2022-08-17T06:43:58.008Z,12.60
2022-08-17T06:47:12.456Z,10.20
2022-08-17T06:50:21.786Z,14.90
2022-08-17T06:53:32.251Z,10.90
2022-08-17T06:56:53.980Z,9.90
2022-08-17T06:59:55.270Z,15.40
2022-08-17T07:03:14.260Z,13.50
2022-08-17T07:06:00.407Z,15.10
2022-08-17T07:09:00.083Z,15.50
2022-08-17T07:11:52.966Z,11.90
2022-08-17T07:14:58.773Z,10.70
2022-08-17T07:17:47.669Z,12.90
2022-08-17T07:20:28.425Z,12.80
2022-08-17T07:23:17.902Z,7.70
2022-08-17T07:26:26.817Z,8.70
2022-08-17T07:29:28.751Z,16.80
2022-08-17T07:32:20.023Z,12.40
2022-08-17T07:35:20.566Z,18.60
2022-08-17T07:38:25.583Z,14.70
2022-08-17T07:41:23.657Z,15.70
2022-08-17T07:44:17.691Z,16.70
2022-08-17T07:47:23.574Z,10.70
2022-08-17T07:50:02.267Z,23.40
2022-08-17T07:53:03.677Z,14.80
2022-08-17T07:55:42.838Z,16.10
2022-08-17T07:58:52.672Z,16.80
2022-08-17T08:01:41.033Z,15.20
2022-08-17T08:08:33.867Z,12.60
2022-08-17T08:11:36.995Z,21.70
2022-08-17T08:14:34.580Z,24.70
2022-08-17T08:17:35.746Z,20.50
2022-08-17T08:20:51.745Z,18.80
2022-08-17T08:23:49.233Z,15.20
2022-08-17T08:26:25.915Z,10.30
2022-08-17T08:29:13.053Z,12.20
2022-08-17T08:31:58.583Z,12.10
2022-08-17T08:35:00.495Z,10.70
2022-08-17T08:37:42.719Z,11.40
2022-08-17T08:43:03.100Z,16.40
2022-08-17T08:45:38.235Z,11.70
2022-08-17T08:48:45.949Z,9.60
2022-08-17T08:51:16.803Z,15.90
2022-08-17T08:53:57.153Z,10.10
2022-08-17T08:57:11.952Z,16.60
2022-08-17T08:59:54.123Z,10.60
2022-08-17T09:02:45.415Z,17.70
2022-08-17T09:05:25.672Z,13.50
2022-08-17T09:08:03.478Z,11.00
2022-08-17T09:10:44.794Z,16.00
2022-08-17T09:13:22.376Z,12.00
2022-08-17T09:15:58.638Z,13.50
2022-08-17T09:19:02.159Z,11.10
2022-08-17T09:21:28.680Z,10.00
2022-08-17T09:24:12.223Z,10.70
2022-08-17T09:26:49.166Z,14.90
2022-08-17T09:29:23.858Z,14.20
2022-08-17T09:31:56.601Z,14.10
2022-08-17T09:34:33.206Z,13.00
2022-08-17T09:37:18.274Z,14.50
2022-08-17T09:42:23.777Z,12.50
2022-08-17T09:45:03.008Z,13.80
2022-08-17T09:47:36.286Z,13.90
2022-08-17T09:50:14.407Z,11.40
2022-08-17T09:52:44.180Z,16.90
2022-08-17T09:55:12.945Z,8.70
2022-08-17T09:58:04.385Z,16.40
2022-08-17T10:00:37.052Z,9.50
2022-08-17T10:03:27.947Z,9.20
2022-08-17T10:06:02.515Z,12.30
2022-08-17T10:08:44.566Z,20.50
2022-08-17T10:11:33.844Z,17.60
2022-08-17T10:14:36.950Z,21.00
2022-08-17T10:17:07.930Z,10.10
2022-08-17T10:19:40.326Z,12.00
2022-08-17T10:22:41.860Z,10.80
2022-08-17T10:25:53.547Z,10.20
2022-08-17T10:28:30.080Z,13.60
2022-08-17T10:31:33.299Z,13.10
2022-08-17T10:34:05.222Z,12.40
2022-08-17T10:36:45.528Z,15.60
2022-08-17T10:39:27.682Z,10.10
2022-08-17T10:42:00.529Z,11.20
2022-08-17T10:44:44.905Z,15.20
2022-08-17T10:47:15.194Z,12.70
2022-08-17T10:49:49.368Z,15.60
2022-08-17T10:52:49.428Z,11.70
2022-08-17T10:55:20.179Z,14.60
2022-08-17T10:57:50.797Z,9.90
2022-08-17T11:00:53.359Z,9.70
2022-08-17T11:03:24.970Z,11.90
2022-08-17T11:06:05.863Z,14.50
2022-08-17T11:08:57.239Z,15.20
2022-08-17T11:12:07.306Z,9.10
2022-08-17T11:14:49.607Z,8.50
2022-08-17T11:17:36.511Z,13.10
2022-08-17T11:20:34.233Z,13.90
2022-08-17T11:23:40.122Z,15.60
2022-08-17T11:26:25.418Z,15.30
2022-08-17T11:29:00.187Z,18.20
2022-08-17T11:31:38.295Z,14.90
2022-08-17T11:34:17.985Z,10.60
2022-08-17T11:37:20.716Z,12.80
2022-08-17T11:40:20.300Z,13.80
2022-08-17T11:43:25.586Z,19.60
2022-08-17T11:46:14.047Z,11.40
2022-08-17T11:49:16.470Z,14.70
2022-08-17T11:52:14.744Z,10.50
2022-08-17T11:54:46.575Z,16.60
2022-08-17T11:58:05.853Z,10.20
2022-08-17T12:00:59.419Z,15.10
2022-08-17T12:03:55.359Z,10.90
2022-08-17T12:06:33.198Z,25.90
2022-08-17T12:09:10.847Z,11.50
2022-08-17T12:11:56.324Z,25.30
2022-08-17T12:15:08.380Z,17.80
2022-08-17T12:17:40.717Z,13.40
2022-08-17T12:20:21.625Z,18.70
2022-08-17T12:23:00.815Z,20.50
2022-08-17T12:25:33.935Z,14.60
2022-08-17T12:28:06.458Z,11.60
2022-08-17T12:30:37.906Z,14.20
2022-08-17T12:33:13.516Z,13.00
2022-08-17T12:36:02.273Z,13.10
2022-08-17T12:38:33.967Z,14.10
2022-08-17T12:41:25.106Z,13.20
2022-08-17T12:44:00.878Z,16.90
2022-08-17T12:46:33.076Z,12.20
2022-08-17T12:49:19.054Z,9.20
2022-08-17T12:51:48.312Z,15.20
2022-08-17T12:54:31.353Z,10.20
2022-08-17T12:57:05.566Z,12.80
2022-08-17T12:59:33.857Z,13.40
2022-08-17T13:02:02.782Z,12.60
2022-08-17T13:04:32.295Z,13.60
2022-08-17T13:07:00.684Z,12.60
2022-08-17T13:09:35.257Z,11.70
2022-08-17T13:12:08.833Z,11.50
2022-08-17T13:14:37.883Z,11.90
2022-08-17T13:17:13.142Z,12.70
2022-08-17T13:19:51.366Z,17.00
2022-08-17T13:22:23.996Z,9.90
2022-08-17T13:24:54.842Z,11.60
2022-08-17T13:27:25.846Z,14.80
2022-08-17T13:29:58.192Z,17.40
2022-08-17T13:32:43.739Z,14.00
2022-08-17T13:35:49.986Z,11.20
2022-08-17T13:38:39.875Z,12.00
2022-08-17T13:41:08.248Z,10.70
2022-08-17T13:43:49.947Z,10.80
2022-08-17T13:46:26.124Z,12.00
2022-08-17T13:49:04.365Z,11.60
2022-08-17T13:51:36.103Z,8.60
2022-08-17T13:54:18.588Z,11.10
2022-08-17T13:57:01.953Z,11.10
2022-08-17T13:59:54.395Z,13.70
2022-08-17T14:02:26.062Z,14.30
2022-08-17T14:05:00.045Z,14.40
2022-08-17T14:07:33.169Z,12.50
2022-08-17T14:10:05.302Z,13.00
2022-08-17T14:12:37.323Z,15.60
2022-08-17T14:15:08.609Z,13.60
2022-08-17T14:17:39.017Z,13.10
2022-08-17T14:20:11.901Z,13.10
2022-08-17T14:22:45.645Z,11.30
2022-08-17T14:25:16.961Z,10.70
2022-08-17T14:27:52.829Z,10.00
2022-08-17T14:30:29.814Z,12.30
2022-08-17T14:33:01.513Z,8.80
2022-08-17T14:35:30.522Z,10.50
2022-08-17T14:37:59.031Z,12.90
2022-08-17T14:40:27.870Z,15.90
2022-08-17T14:42:57.584Z,19.50
2022-08-17T14:45:30.023Z,11.40
2022-08-17T14:48:04.162Z,10.40
2022-08-17T14:50:35.271Z,19.20
2022-08-17T14:53:06.614Z,14.70
2022-08-17T14:55:36.270Z,11.00
2022-08-17T14:58:05.298Z,15.80
2022-08-17T15:00:34.345Z,22.10
2022-08-17T15:03:03.535Z,12.70
2022-08-17T15:05:35.856Z,22.70
2022-08-17T15:08:08.362Z,13.70
2022-08-17T15:10:37.134Z,17.60
2022-08-17T15:13:10.371Z,11.80
2022-08-17T15:15:39.165Z,15.10
2022-08-17T15:18:07.721Z,11.60
2022-08-17T15:20:36.489Z,14.40
2022-08-17T15:23:06.396Z,16.00
2022-08-17T15:25:35.532Z,15.80
2022-08-17T15:28:06.796Z,14.80
2022-08-17T15:30:37.867Z,15.00
2022-08-17T15:33:06.232Z,17.80
2022-08-17T15:35:35.488Z,15.00
2022-08-17T15:38:11.697Z,11.70
2022-08-17T15:40:44.289Z,13.30
2022-08-17T15:43:15.862Z,16.10
2022-08-17T15:45:44.971Z,17.00
2022-08-17T15:48:40.990Z,12.60
2022-08-17T15:51:16.902Z,11.70
2022-08-17T15:53:47.385Z,14.90
2022-08-17T15:56:16.962Z,16.10
2022-08-17T15:58:46.895Z,13.10
2022-08-17T16:02:15.425Z,15.00
2022-08-17T16:04:30.314Z,21.60
2022-08-17T16:06:55.783Z,18.90
2022-08-17T16:09:24.186Z,19.00
2022-08-17T16:11:55.741Z,11.90
2022-08-17T16:14:25.763Z,16.20
2022-08-17T16:17:02.405Z,13.40
2022-08-17T16:19:32.008Z,10.90
2022-08-17T16:22:00.713Z,16.00
2022-08-17T16:24:29.848Z,18.70
2022-08-17T16:26:58.834Z,14.90
2022-08-17T16:29:27.486Z,12.90
2022-08-17T16:31:57.148Z,12.20
2022-08-17T16:34:26.616Z,18.10
2022-08-17T16:36:56.533Z,14.00
2022-08-17T16:39:30.131Z,13.30
2022-08-17T16:42:02.441Z,19.30
2022-08-17T16:44:31.673Z,12.60
2022-08-17T16:47:00.803Z,13.10
2022-08-17T16:49:37.344Z,16.40
2022-08-17T16:52:14.021Z,21.30
2022-08-17T16:55:02.433Z,9.90
2022-08-17T16:57:31.259Z,11.90
2022-08-17T16:59:59.481Z,13.30
2022-08-17T17:02:38.465Z,26.60
2022-08-17T17:05:13.607Z,15.30
2022-08-17T17:07:58.406Z,15.40
2022-08-17T17:10:35.675Z,14.20
2022-08-17T17:13:13.297Z,10.90
2022-08-17T17:15:57.342Z,18.90
2022-08-17T17:18:36.787Z,15.10
2022-08-17T17:21:10.060Z,12.90
2022-08-17T17:23:47.115Z,15.70
2022-08-17T17:26:34.090Z,19.20
2022-08-17T17:29:26.616Z,14.00
2022-08-17T17:32:04.564Z,18.20
2022-08-17T17:34:35.311Z,19.20
2022-08-17T17:37:12.697Z,18.30
2022-08-17T17:39:48.894Z,15.80
2022-08-17T17:42:21.640Z,19.00
2022-08-17T17:44:59.923Z,21.40
2022-08-17T17:47:30.387Z,14.30
2022-08-17T17:50:01.326Z,22.50
2022-08-17T17:52:37.757Z,23.70
2022-08-17T17:55:16.520Z,13.90
2022-08-17T17:57:56.000Z,12.70
2022-08-17T18:00:30.921Z,16.20
2022-08-17T18:03:16.588Z,22.30
2022-08-17T18:06:03.889Z,18.20
2022-08-17T18:08:49.026Z,19.10
2022-08-17T18:11:36.444Z,19.80
2022-08-17T18:14:19.526Z,25.90
2022-08-17T18:16:53.746Z,22.60
2022-08-17T18:19:25.039Z,18.70
2022-08-17T18:22:01.575Z,22.10
2022-08-17T18:24:33.452Z,30.80
2022-08-17T18:27:08.692Z,19.70
2022-08-17T18:29:46.803Z,21.50
2022-08-17T18:32:21.565Z,18.70
2022-08-17T18:37:33.093Z,17.00
2022-08-17T18:40:23.917Z,26.00
2022-08-17T18:43:10.699Z,26.40
2022-08-17T18:45:43.026Z,20.90
2022-08-17T18:48:28.037Z,20.20
2022-08-17T18:51:00.092Z,19.20
2022-08-17T18:53:40.378Z,20.30
2022-08-17T18:56:31.356Z,20.40
2022-08-17T18:59:22.488Z,17.40
2022-08-17T19:02:10.226Z,31.40
2022-08-17T19:04:57.311Z,28.20
2022-08-17T19:07:29.692Z,21.50
2022-08-17T19:10:06.810Z,20.40
2022-08-17T19:12:43.540Z,27.30
2022-08-17T19:15:17.106Z,24.70
2022-08-17T19:17:52.933Z,28.00
2022-08-17T19:20:30.684Z,15.40
2022-08-17T19:23:11.873Z,17.40
2022-08-17T19:25:47.769Z,17.30
2022-08-17T19:28:23.345Z,20.90
2022-08-17T19:30:56.715Z,19.60
2022-08-17T19:33:27.810Z,16.60
2022-08-17T19:36:05.725Z,21.70
2022-08-17T19:38:44.724Z,21.60
2022-08-17T19:41:26.231Z,20.10
2022-08-17T19:44:12.444Z,21.10
2022-08-17T19:46:59.517Z,24.90
2022-08-17T19:49:41.646Z,23.10
2022-08-17T19:52:37.299Z,20.10
2022-08-17T19:55:20.234Z,20.90
2022-08-17T19:58:02.276Z,16.30
2022-08-17T20:00:33.976Z,17.00
2022-08-17T20:03:08.425Z,17.80
2022-08-17T20:06:01.467Z,25.00
2022-08-17T20:08:34.704Z,15.10
2022-08-17T20:11:09.906Z,20.70
2022-08-17T20:13:42.854Z,13.60
2022-08-17T20:16:14.049Z,25.00
2022-08-17T20:18:55.311Z,18.50
2022-08-17T20:21:29.155Z,19.10
2022-08-17T20:24:04.776Z,20.60
2022-08-17T20:26:49.136Z,17.80
2022-08-17T20:29:37.013Z,14.30
2022-08-17T20:32:22.240Z,16.60
2022-08-17T20:35:05.488Z,21.10
2022-08-17T20:37:42.430Z,23.70
2022-08-17T20:40:25.674Z,16.80
2022-08-17T20:42:55.083Z,22.10
2022-08-17T20:46:02.697Z,14.60
2022-08-17T20:48:39.003Z,15.80
2022-08-17T20:51:25.388Z,17.80
2022-08-17T20:54:37.459Z,21.50
2022-08-17T20:57:14.076Z,16.40
2022-08-17T21:00:13.424Z,19.20
2022-08-17T21:02:44.373Z,15.90
2022-08-17T21:05:32.098Z,26.20
2022-08-17T21:08:15.362Z,21.60
2022-08-17T21:10:46.239Z,24.80
2022-08-17T21:13:57.694Z,18.80
2022-08-17T21:16:38.186Z,18.90
2022-08-17T21:19:30.921Z,17.80
2022-08-17T21:22:13.786Z,17.50
2022-08-17T21:24:55.852Z,22.70
2022-08-17T21:27:37.305Z,18.50
2022-08-17T21:30:48.928Z,16.40
2022-08-17T21:33:26.489Z,16.20
2022-08-17T21:36:23.054Z,13.00
2022-08-17T21:39:01.744Z,25.10
2022-08-17T21:41:33.547Z,16.20
2022-08-17T21:44:20.977Z,21.50
2022-08-17T21:46:52.696Z,28.50
2022-08-17T21:49:27.997Z,19.60
2022-08-17T21:51:57.566Z,18.00
2022-08-17T21:54:34.965Z,21.00
2022-08-17T21:57:06.243Z,18.80
2022-08-17T21:59:37.923Z,18.50
2022-08-17T22:02:08.672Z,20.10
2022-08-17T22:04:41.286Z,20.70
2022-08-17T22:07:12.685Z,17.60
2022-08-17T22:09:45.169Z,22.40
2022-08-17T22:12:18.046Z,17.30
2022-08-17T22:14:59.823Z,13.60
2022-08-17T22:17:35.458Z,20.10
2022-08-17T22:20:13.676Z,17.90
2022-08-17T22:23:30.507Z,22.30
2022-08-17T22:26:01.402Z,19.90
2022-08-17T22:28:43.256Z,17.00
2022-08-17T22:31:14.469Z,30.10
2022-08-17T22:33:48.356Z,20.70
2022-08-17T22:36:29.025Z,19.70
2022-08-17T22:38:59.680Z,17.60
2022-08-17T22:41:49.907Z,17.70
2022-08-17T22:44:24.059Z,15.80
2022-08-17T22:47:06.921Z,18.20
2022-08-17T22:49:53.767Z,33.70
2022-08-17T22:52:32.317Z,23.50
2022-08-17T22:55:24.735Z,19.50
2022-08-17T22:58:13.987Z,18.70
2022-08-17T23:00:44.598Z,19.70
2022-08-17T23:03:17.283Z,19.90
2022-08-17T23:06:02.046Z,16.80
2022-08-17T23:08:31.623Z,21.70
2022-08-17T23:11:00.566Z,19.60
2022-08-17T23:13:32.783Z,26.40
2022-08-17T23:16:01.972Z,26.40
2022-08-17T23:18:30.373Z,21.70
2022-08-17T23:20:59.498Z,24.30
2022-08-17T23:23:28.002Z,21.30
2022-08-17T23:25:56.458Z,17.20
2022-08-17T23:28:24.810Z,26.90
2022-08-17T23:30:53.199Z,22.00
2022-08-17T23:33:29.298Z,23.70
2022-08-17T23:36:01.027Z,19.40
2022-08-17T23:38:31.256Z,31.70
2022-08-17T23:41:03.829Z,26.50
2022-08-17T23:46:23.853Z,20.50
2022-08-17T23:48:52.931Z,17.70
2022-08-17T23:51:25.216Z,21.50
2022-08-17T23:54:07.921Z,22.40
2022-08-17T23:56:43.229Z,25.20
2022-08-17T23:59:12.758Z,19.80
